sensor_id;sensor_type;location;lat;lon;timestamp;pressure;altitude;pressure_sealevel;temperature;humidity
1371;BME280;14306;49.942;11.570;2022-12-07T00:01:30;97428.16;;;5.51;86.49
1371;BME280;14306;49.942;11.570;2022-12-07T00:04:02;97418.53;;;5.30;86.63
1371;BME280;14306;49.942;11.570;2022-12-07T00:06:32;97440.00;;;5.10;86.33
1371;BME280;14306;49.942;11.570;2022-12-07T00:09:00;97431.88;;;4.45;86.82
1371;BME280;14306;49.942;11.570;2022-12-07T00:11:29;97445.59;;;3.91;88.31
1371;BME280;14306;49.942;11.570;2022-12-07T00:13:58;97439.09;;;3.82;89.87
1371;BME280;14306;49.942;11.570;2022-12-07T00:16:30;97434.16;;;3.59;90.50
1371;BME280;14306;49.942;11.570;2022-12-07T00:19:00;97420.91;;;3.38;90.33
1371;BME280;14306;49.942;11.570;2022-12-07T00:21:31;97438.50;;;3.29;90.71
1371;BME280;14306;49.942;11.570;2022-12-07T00:24:00;97428.78;;;3.13;91.07
1371;BME280;14306;49.942;11.570;2022-12-07T00:26:30;97430.22;;;3.30;91.17
1371;BME280;14306;49.942;11.570;2022-12-07T00:29:00;97437.75;;;3.33;90.94
1371;BME280;14306;49.942;11.570;2022-12-07T00:31:30;97427.59;;;3.35;91.53
1371;BME280;14306;49.942;11.570;2022-12-07T00:34:01;97433.38;;;3.59;90.21
1371;BME280;14306;49.942;11.570;2022-12-07T00:36:30;97431.94;;;3.46;90.73
1371;BME280;14306;49.942;11.570;2022-12-07T00:38:59;97436.94;;;3.33;90.07
1371;BME280;14306;49.942;11.570;2022-12-07T00:41:28;97433.13;;;3.24;91.04
1371;BME280;14306;49.942;11.570;2022-12-07T00:43:56;97429.63;;;3.18;91.45
1371;BME280;14306;49.942;11.570;2022-12-07T00:46:25;97432.22;;;3.13;92.02
1371;BME280;14306;49.942;11.570;2022-12-07T00:48:53;97414.47;;;2.97;91.65
1371;BME280;14306;49.942;11.570;2022-12-07T00:51:24;97416.50;;;3.17;91.73
1371;BME280;14306;49.942;11.570;2022-12-07T00:53:53;97421.16;;;3.36;91.14
1371;BME280;14306;49.942;11.570;2022-12-07T00:56:22;97421.16;;;3.36;91.19
1371;BME280;14306;49.942;11.570;2022-12-07T00:58:52;97415.84;;;3.41;89.64
1371;BME280;14306;49.942;11.570;2022-12-07T01:01:21;97413.22;;;3.51;89.33
1371;BME280;14306;49.942;11.570;2022-12-07T01:03:49;97406.75;;;3.37;89.62
1371;BME280;14306;49.942;11.570;2022-12-07T01:06:19;97411.03;;;3.38;90.07
1371;BME280;14306;49.942;11.570;2022-12-07T01:08:49;97421.44;;;3.35;90.33
1371;BME280;14306;49.942;11.570;2022-12-07T01:11:19;97415.50;;;3.28;90.57
1371;BME280;14306;49.942;11.570;2022-12-07T01:13:49;97422.59;;;3.49;89.87
1371;BME280;14306;49.942;11.570;2022-12-07T01:16:23;97423.31;;;3.39;90.20
1371;BME280;14306;49.942;11.570;2022-12-07T01:18:55;97422.34;;;3.55;89.47
1371;BME280;14306;49.942;11.570;2022-12-07T01:21:26;97428.53;;;3.56;89.65
1371;BME280;14306;49.942;11.570;2022-12-07T01:23:56;97425.91;;;3.66;89.99
1371;BME280;14306;49.942;11.570;2022-12-07T01:26:26;97416.75;;;3.57;89.77
1371;BME280;14306;49.942;11.570;2022-12-07T01:28:54;97434.09;;;3.44;90.44
1371;BME280;14306;49.942;11.570;2022-12-07T01:31:24;97419.72;;;3.60;89.96
1371;BME280;14306;49.942;11.570;2022-12-07T01:33:54;97417.56;;;3.57;89.73
1371;BME280;14306;49.942;11.570;2022-12-07T01:36:25;97397.56;;;3.28;90.81
1371;BME280;14306;49.942;11.570;2022-12-07T01:38:58;97420.00;;;3.64;90.07
1371;BME280;14306;49.942;11.570;2022-12-07T01:41:29;97424.25;;;3.60;90.73
1371;BME280;14306;49.942;11.570;2022-12-07T01:47:00;97417.09;;;3.70;90.18
1371;BME280;14306;49.942;11.570;2022-12-07T01:49:32;97407.88;;;3.51;90.31
1371;BME280;14306;49.942;11.570;2022-12-07T01:52:08;97416.88;;;3.77;89.58
1371;BME280;14306;49.942;11.570;2022-12-07T01:54:41;97399.69;;;3.73;89.57
1371;BME280;14306;49.942;11.570;2022-12-07T01:57:09;97391.03;;;3.51;90.64
1371;BME280;14306;49.942;11.570;2022-12-07T01:59:39;97391.25;;;3.44;90.71
1371;BME280;14306;49.942;11.570;2022-12-07T02:02:12;97386.72;;;3.50;90.96
1371;BME280;14306;49.942;11.570;2022-12-07T02:04:44;97392.81;;;3.40;91.41
1371;BME280;14306;49.942;11.570;2022-12-07T02:07:14;97398.97;;;3.36;91.59
1371;BME280;14306;49.942;11.570;2022-12-07T02:09:44;97397.72;;;3.48;91.70
1371;BME280;14306;49.942;11.570;2022-12-07T02:12:12;97388.69;;;3.23;92.22
1371;BME280;14306;49.942;11.570;2022-12-07T02:14:41;97393.69;;;3.51;91.85
1371;BME280;14306;49.942;11.570;2022-12-07T02:17:14;97385.94;;;3.54;91.34
1371;BME280;14306;49.942;11.570;2022-12-07T02:20:17;97370.75;;;3.18;92.41
1371;BME280;14306;49.942;11.570;2022-12-07T02:26:07;97370.88;;;3.38;91.74
1371;BME280;14306;49.942;11.570;2022-12-07T02:28:55;97365.84;;;3.47;91.75
1371;BME280;14306;49.942;11.570;2022-12-07T02:31:28;97340.66;;;3.43;91.70
1371;BME280;14306;49.942;11.570;2022-12-07T02:34:06;97346.28;;;3.41;91.58
1371;BME280;14306;49.942;11.570;2022-12-07T02:36:42;97358.41;;;3.64;90.86
1371;BME280;14306;49.942;11.570;2022-12-07T02:39:14;97341.34;;;3.75;91.26
1371;BME280;14306;49.942;11.570;2022-12-07T02:41:47;97347.72;;;3.69;90.81
1371;BME280;14306;49.942;11.570;2022-12-07T02:44:21;97346.44;;;3.81;89.68
1371;BME280;14306;49.942;11.570;2022-12-07T02:46:55;97347.53;;;3.80;91.46
1371;BME280;14306;49.942;11.570;2022-12-07T02:49:26;97352.63;;;3.87;89.98
1371;BME280;14306;49.942;11.570;2022-12-07T02:51:55;97352.91;;;3.90;89.63
1371;BME280;14306;49.942;11.570;2022-12-07T02:54:23;97360.13;;;3.90;90.20
1371;BME280;14306;49.942;11.570;2022-12-07T02:56:56;97349.94;;;3.87;89.24
1371;BME280;14306;49.942;11.570;2022-12-07T02:59:40;97355.53;;;3.75;90.10
1371;BME280;14306;49.942;11.570;2022-12-07T03:02:20;97345.34;;;3.67;89.86
1371;BME280;14306;49.942;11.570;2022-12-07T03:05:00;97359.84;;;3.81;89.31
1371;BME280;14306;49.942;11.570;2022-12-07T03:07:38;97370.00;;;3.79;89.92
1371;BME280;14306;49.942;11.570;2022-12-07T03:10:14;97358.75;;;3.77;89.45
1371;BME280;14306;49.942;11.570;2022-12-07T03:12:53;97361.94;;;3.69;89.17
1371;BME280;14306;49.942;11.570;2022-12-07T03:15:30;97364.03;;;3.62;89.26
1371;BME280;14306;49.942;11.570;2022-12-07T03:18:00;97353.00;;;3.49;89.61
1371;BME280;14306;49.942;11.570;2022-12-07T03:20:32;97362.94;;;3.53;89.66
1371;BME280;14306;49.942;11.570;2022-12-07T03:23:04;97358.16;;;3.60;89.33
1371;BME280;14306;49.942;11.570;2022-12-07T03:25:39;97351.16;;;3.54;90.33
1371;BME280;14306;49.942;11.570;2022-12-07T03:28:10;97357.34;;;3.65;90.60
1371;BME280;14306;49.942;11.570;2022-12-07T03:30:45;97370.53;;;3.71;90.18
1371;BME280;14306;49.942;11.570;2022-12-07T03:33:20;97374.03;;;3.77;90.48
1371;BME280;14306;49.942;11.570;2022-12-07T03:35:57;97356.63;;;3.84;89.52
1371;BME280;14306;49.942;11.570;2022-12-07T03:38:33;97364.66;;;3.79;90.33
1371;BME280;14306;49.942;11.570;2022-12-07T03:41:06;97363.84;;;3.84;90.63
1371;BME280;14306;49.942;11.570;2022-12-07T03:43:37;97367.13;;;3.96;90.70
1371;BME280;14306;49.942;11.570;2022-12-07T03:46:14;97363.38;;;3.97;90.30
1371;BME280;14306;49.942;11.570;2022-12-07T03:48:54;97358.31;;;4.05;89.95
1371;BME280;14306;49.942;11.570;2022-12-07T03:51:28;97356.38;;;3.91;90.01
1371;BME280;14306;49.942;11.570;2022-12-07T03:54:05;97351.59;;;3.98;90.80
1371;BME280;14306;49.942;11.570;2022-12-07T03:56:36;97354.81;;;4.00;90.18
1371;BME280;14306;49.942;11.570;2022-12-07T03:59:06;97359.16;;;4.16;90.17
1371;BME280;14306;49.942;11.570;2022-12-07T04:01:36;97353.75;;;4.11;89.54
1371;BME280;14306;49.942;11.570;2022-12-07T04:04:04;97359.94;;;4.06;89.38
1371;BME280;14306;49.942;11.570;2022-12-07T04:06:32;97361.53;;;4.12;89.72
1371;BME280;14306;49.942;11.570;2022-12-07T04:09:00;97361.53;;;4.12;89.36
1371;BME280;14306;49.942;11.570;2022-12-07T04:11:29;97342.69;;;3.82;89.71
1371;BME280;14306;49.942;11.570;2022-12-07T04:13:57;97336.53;;;3.77;90.45
1371;BME280;14306;49.942;11.570;2022-12-07T04:16:44;97323.41;;;3.80;90.40
1371;BME280;14306;49.942;11.570;2022-12-07T04:19:12;97330.72;;;4.05;89.83
1371;BME280;14306;49.942;11.570;2022-12-07T04:21:40;97345.97;;;3.99;90.02
1371;BME280;14306;49.942;11.570;2022-12-07T04:24:09;97333.69;;;4.13;89.47
1371;BME280;14306;49.942;11.570;2022-12-07T04:26:37;97340.63;;;3.94;88.93
1371;BME280;14306;49.942;11.570;2022-12-07T04:29:05;97349.47;;;4.05;89.28
1371;BME280;14306;49.942;11.570;2022-12-07T04:31:33;97340.66;;;4.14;88.53
1371;BME280;14306;49.942;11.570;2022-12-07T04:34:04;97347.06;;;4.08;87.77
1371;BME280;14306;49.942;11.570;2022-12-07T04:36:33;97348.41;;;4.06;88.94
1371;BME280;14306;49.942;11.570;2022-12-07T04:39:03;97357.00;;;4.13;88.52
1371;BME280;14306;49.942;11.570;2022-12-07T04:41:32;97352.47;;;4.18;87.91
1371;BME280;14306;49.942;11.570;2022-12-07T04:44:02;97357.25;;;4.06;88.65
1371;BME280;14306;49.942;11.570;2022-12-07T04:46:33;97344.91;;;4.05;88.85
1371;BME280;14306;49.942;11.570;2022-12-07T04:49:03;97349.53;;;4.25;87.82
1371;BME280;14306;49.942;11.570;2022-12-07T04:51:31;97353.75;;;4.11;88.69
1371;BME280;14306;49.942;11.570;2022-12-07T04:53:59;97339.06;;;4.18;89.40
1371;BME280;14306;49.942;11.570;2022-12-07T04:56:27;97344.72;;;4.37;89.17
1371;BME280;14306;49.942;11.570;2022-12-07T04:58:55;97342.56;;;4.29;89.11
1371;BME280;14306;49.942;11.570;2022-12-07T05:01:24;97347.06;;;4.08;88.78
1371;BME280;14306;49.942;11.570;2022-12-07T05:03:52;97346.53;;;4.06;89.25
1371;BME280;14306;49.942;11.570;2022-12-07T05:06:22;97354.56;;;4.11;89.12
1371;BME280;14306;49.942;11.570;2022-12-07T05:08:51;97355.41;;;4.12;88.49
1371;BME280;14306;49.942;11.570;2022-12-07T05:11:19;97344.13;;;4.15;88.88
1371;BME280;14306;49.942;11.570;2022-12-07T05:14:09;97348.69;;;4.14;89.09
1371;BME280;14306;49.942;11.570;2022-12-07T05:16:38;97345.50;;;4.28;88.95
1371;BME280;14306;49.942;11.570;2022-12-07T05:19:07;97353.00;;;4.31;88.74
1371;BME280;14306;49.942;11.570;2022-12-07T05:21:37;97349.75;;;4.08;89.28
1371;BME280;14306;49.942;11.570;2022-12-07T05:24:07;97349.53;;;4.20;89.16
1371;BME280;14306;49.942;11.570;2022-12-07T05:26:35;97346.31;;;4.23;89.04
1371;BME280;14306;49.942;11.570;2022-12-07T05:29:04;97358.34;;;4.15;89.97
1371;BME280;14306;49.942;11.570;2022-12-07T05:31:32;97338.00;;;4.30;89.18
1371;BME280;14306;49.942;11.570;2022-12-07T05:34:01;97344.97;;;4.26;89.11
1371;BME280;14306;49.942;11.570;2022-12-07T05:36:30;97332.06;;;4.12;89.77
1371;BME280;14306;49.942;11.570;2022-12-07T05:39:00;97326.97;;;4.11;89.63
1371;BME280;14306;49.942;11.570;2022-12-07T05:41:28;97333.69;;;4.13;89.02
1371;BME280;14306;49.942;11.570;2022-12-07T05:44:14;97349.47;;;4.05;89.26
1371;BME280;14306;49.942;11.570;2022-12-07T05:46:43;97345.50;;;4.18;90.32
1371;BME280;14306;49.942;11.570;2022-12-07T05:49:11;97340.13;;;4.18;90.19
1371;BME280;14306;49.942;11.570;2022-12-07T05:51:39;97344.41;;;4.18;89.63
1371;BME280;14306;49.942;11.570;2022-12-07T05:54:09;97350.28;;;4.10;90.52
1371;BME280;14306;49.942;11.570;2022-12-07T05:56:38;97332.91;;;4.28;89.23
1371;BME280;14306;49.942;11.570;2022-12-07T05:59:07;97335.84;;;4.22;89.65
1371;BME280;14306;49.942;11.570;2022-12-07T06:01:51;97335.03;;;4.16;90.03
1371;BME280;14306;49.942;11.570;2022-12-07T06:04:21;97335.81;;;4.11;90.10
1371;BME280;14306;49.942;11.570;2022-12-07T06:06:50;97335.25;;;3.94;90.53
1371;BME280;14306;49.942;11.570;2022-12-07T06:09:20;97330.69;;;3.95;89.82
1371;BME280;14306;49.942;11.570;2022-12-07T06:11:50;97323.16;;;3.87;90.31
1371;BME280;14306;49.942;11.570;2022-12-07T06:14:36;97317.19;;;3.65;90.93
1371;BME280;14306;49.942;11.570;2022-12-07T06:17:04;97315.53;;;3.49;90.96
1371;BME280;14306;49.942;11.570;2022-12-07T06:19:33;97314.19;;;3.51;91.57
1371;BME280;14306;49.942;11.570;2022-12-07T06:22:02;97323.84;;;3.52;91.83
1371;BME280;14306;49.942;11.570;2022-12-07T06:24:33;97321.19;;;3.62;91.84
1371;BME280;14306;49.942;11.570;2022-12-07T06:27:02;97323.94;;;3.72;92.14
1371;BME280;14306;49.942;11.570;2022-12-07T06:29:30;97312.19;;;3.83;91.80
1371;BME280;14306;49.942;11.570;2022-12-07T06:31:58;97326.16;;;4.00;91.02
1371;BME280;14306;49.942;11.570;2022-12-07T06:34:27;97328.00;;;3.85;91.44
1371;BME280;14306;49.942;11.570;2022-12-07T06:36:55;97312.97;;;3.84;92.08
1371;BME280;14306;49.942;11.570;2022-12-07T06:39:26;97318.41;;;4.04;90.98
1371;BME280;14306;49.942;11.570;2022-12-07T06:41:57;97305.28;;;4.07;91.54
1371;BME280;14306;49.942;11.570;2022-12-07T06:44:25;97312.78;;;4.10;90.19
1371;BME280;14306;49.942;11.570;2022-12-07T06:46:54;97317.38;;;4.35;89.84
1371;BME280;14306;49.942;11.570;2022-12-07T06:49:42;97288.97;;;4.19;89.92
1371;BME280;14306;49.942;11.570;2022-12-07T06:52:10;97311.22;;;4.45;89.74
1371;BME280;14306;49.942;11.570;2022-12-07T06:54:38;97319.00;;;4.56;90.64
1371;BME280;14306;49.942;11.570;2022-12-07T06:57:08;97310.13;;;4.26;89.58
1371;BME280;14306;49.942;11.570;2022-12-07T06:59:37;97323.25;;;4.12;90.57
1371;BME280;14306;49.942;11.570;2022-12-07T07:02:05;97329.09;;;3.99;89.85
1371;BME280;14306;49.942;11.570;2022-12-07T07:04:33;97318.41;;;4.14;90.57
1371;BME280;14306;49.942;11.570;2022-12-07T07:07:02;97322.69;;;4.05;90.88
1371;BME280;14306;49.942;11.570;2022-12-07T07:09:30;97325.94;;;4.37;90.28
1371;BME280;14306;49.942;11.570;2022-12-07T07:11:58;97321.63;;;4.26;90.19
1371;BME280;14306;49.942;11.570;2022-12-07T07:14:28;97317.34;;;4.05;90.59
1371;BME280;14306;49.942;11.570;2022-12-07T07:16:57;97319.72;;;3.91;90.20
1371;BME280;14306;49.942;11.570;2022-12-07T07:19:26;97311.47;;;4.23;90.25
1371;BME280;14306;49.942;11.570;2022-12-07T07:21:54;97327.25;;;4.19;90.46
1371;BME280;14306;49.942;11.570;2022-12-07T07:24:22;97319.50;;;4.28;90.27
1371;BME280;14306;49.942;11.570;2022-12-07T07:26:51;97322.44;;;4.16;89.77
1371;BME280;14306;49.942;11.570;2022-12-07T07:29:19;97329.91;;;3.99;90.94
1371;BME280;14306;49.942;11.570;2022-12-07T07:31:49;97318.63;;;3.97;90.07
1371;BME280;14306;49.942;11.570;2022-12-07T07:34:17;97337.69;;;4.11;90.93
1371;BME280;14306;49.942;11.570;2022-12-07T07:36:46;97325.41;;;4.25;90.37
1371;BME280;14306;49.942;11.570;2022-12-07T07:39:14;97325.94;;;4.32;90.13
1371;BME280;14306;49.942;11.570;2022-12-07T07:41:42;97322.97;;;4.13;90.61
1371;BME280;14306;49.942;11.570;2022-12-07T07:44:10;97324.88;;;4.28;91.06
1371;BME280;14306;49.942;11.570;2022-12-07T07:46:39;97315.75;;;4.34;90.20
1371;BME280;14306;49.942;11.570;2022-12-07T07:49:09;97329.16;;;4.24;90.73
1371;BME280;14306;49.942;11.570;2022-12-07T07:51:37;97333.47;;;4.35;90.56
1371;BME280;14306;49.942;11.570;2022-12-07T07:54:05;97326.53;;;4.54;89.83
1371;BME280;14306;49.942;11.570;2022-12-07T07:56:34;97327.84;;;4.67;89.64
1371;BME280;14306;49.942;11.570;2022-12-07T07:59:02;97326.25;;;4.61;89.10
1371;BME280;14306;49.942;11.570;2022-12-07T08:01:30;97333.50;;;4.70;89.63
1371;BME280;14306;49.942;11.570;2022-12-07T08:03:59;97333.75;;;4.69;89.23
1371;BME280;14306;49.942;11.570;2022-12-07T08:06:28;97344.72;;;4.57;90.20
1371;BME280;14306;49.942;11.570;2022-12-07T08:08:58;97345.00;;;4.61;88.72
1371;BME280;14306;49.942;11.570;2022-12-07T08:11:26;97336.69;;;4.57;89.71
1371;BME280;14306;49.942;11.570;2022-12-07T08:13:54;97347.44;;;4.62;89.32
1371;BME280;14306;49.942;11.570;2022-12-07T08:16:23;97339.66;;;4.56;89.70
1371;BME280;14306;49.942;11.570;2022-12-07T08:18:51;97331.06;;;4.74;90.08
1371;BME280;14306;49.942;11.570;2022-12-07T08:21:20;97338.06;;;4.75;89.75
1371;BME280;14306;49.942;11.570;2022-12-07T08:23:53;97335.09;;;4.71;90.26
1371;BME280;14306;49.942;11.570;2022-12-07T08:26:21;97340.19;;;4.88;90.35
1371;BME280;14306;49.942;11.570;2022-12-07T08:28:49;97337.75;;;4.76;90.15
1371;BME280;14306;49.942;11.570;2022-12-07T08:31:18;97342.88;;;4.98;89.40
1371;BME280;14306;49.942;11.570;2022-12-07T08:33:47;97339.13;;;4.79;89.97
1371;BME280;14306;49.942;11.570;2022-12-07T08:36:16;97341.25;;;4.97;89.35
1371;BME280;14306;49.942;11.570;2022-12-07T08:38:45;97349.03;;;4.93;89.48
1371;BME280;14306;49.942;11.570;2022-12-07T08:41:35;97354.66;;;4.97;88.65
1371;BME280;14306;49.942;11.570;2022-12-07T08:44:04;97346.88;;;5.10;88.13
1371;BME280;14306;49.942;11.570;2022-12-07T08:46:34;97346.34;;;4.83;88.12
1371;BME280;14306;49.942;11.570;2022-12-07T08:49:06;97356.78;;;5.30;88.13
1371;BME280;14306;49.942;11.570;2022-12-07T08:51:38;97358.38;;;5.41;86.66
1371;BME280;14306;49.942;11.570;2022-12-07T08:54:09;97355.19;;;5.19;88.37
1371;BME280;14306;49.942;11.570;2022-12-07T08:56:40;97357.84;;;5.34;86.99
1371;BME280;14306;49.942;11.570;2022-12-07T08:59:09;97359.22;;;4.66;88.16
1371;BME280;14306;49.942;11.570;2022-12-07T09:01:38;97366.44;;;5.16;88.02
1371;BME280;14306;49.942;11.570;2022-12-07T09:04:06;97368.53;;;5.54;87.89
1371;BME280;14306;49.942;11.570;2022-12-07T09:06:35;97361.06;;;5.26;87.15
1371;BME280;14306;49.942;11.570;2022-12-07T09:09:04;97373.94;;;5.34;88.02
1371;BME280;14306;49.942;11.570;2022-12-07T09:11:33;97364.34;;;4.88;88.94
1371;BME280;14306;49.942;11.570;2022-12-07T09:14:02;97371.56;;;5.17;89.74
1371;BME280;14306;49.942;11.570;2022-12-07T09:16:31;97362.44;;;5.23;88.72
1371;BME280;14306;49.942;11.570;2022-12-07T09:18:59;97362.97;;;5.05;89.49
1371;BME280;14306;49.942;11.570;2022-12-07T09:21:27;97370.72;;;5.32;88.71
1371;BME280;14306;49.942;11.570;2022-12-07T09:23:55;97379.03;;;5.50;88.48
1371;BME280;14306;49.942;11.570;2022-12-07T09:26:24;97380.88;;;5.55;88.76
1371;BME280;14306;49.942;11.570;2022-12-07T09:28:52;97373.38;;;5.52;87.99
1371;BME280;14306;49.942;11.570;2022-12-07T09:31:22;97379.06;;;5.35;88.96
1371;BME280;14306;49.942;11.570;2022-12-07T09:33:55;97363.69;;;5.56;88.47
1371;BME280;14306;49.942;11.570;2022-12-07T09:36:24;97374.66;;;5.74;88.88
1371;BME280;14306;49.942;11.570;2022-12-07T09:38:52;97375.47;;;5.65;87.86
1371;BME280;14306;49.942;11.570;2022-12-07T09:41:21;97370.16;;;5.50;86.76
1371;BME280;14306;49.942;11.570;2022-12-07T09:43:51;97361.56;;;5.43;87.96
1371;BME280;14306;49.942;11.570;2022-12-07T09:46:22;97359.47;;;5.25;87.82
1371;BME280;14306;49.942;11.570;2022-12-07T09:48:50;97358.66;;;5.29;89.79
1371;BME280;14306;49.942;11.570;2022-12-07T09:51:20;97354.91;;;5.30;90.02
1371;BME280;14306;49.942;11.570;2022-12-07T09:53:52;97352.41;;;5.54;89.24
1371;BME280;14306;49.942;11.570;2022-12-07T09:56:22;97356.44;;;5.56;88.71
1371;BME280;14306;49.942;11.570;2022-12-07T09:58:54;97346.97;;;5.74;89.49
1371;BME280;14306;49.942;11.570;2022-12-07T10:01:29;97350.25;;;5.61;88.74
1371;BME280;14306;49.942;11.570;2022-12-07T10:04:02;97343.25;;;5.65;88.13
1371;BME280;14306;49.942;11.570;2022-12-07T10:06:34;97350.16;;;5.91;87.92
1371;BME280;14306;49.942;11.570;2022-12-07T10:09:09;97348.03;;;5.88;87.58
1371;BME280;14306;49.942;11.570;2022-12-07T10:11:58;97349.13;;;5.77;86.67
1371;BME280;14306;49.942;11.570;2022-12-07T10:14:28;97346.97;;;5.84;87.26
1371;BME280;14306;49.942;11.570;2022-12-07T10:17:37;97346.69;;;5.80;87.51
1371;BME280;14306;49.942;11.570;2022-12-07T10:20:17;97339.88;;;6.08;86.16
1371;BME280;14306;49.942;11.570;2022-12-07T10:22:58;97344.66;;;6.16;87.78
1371;BME280;14306;49.942;11.570;2022-12-07T10:25:29;97342.94;;;5.91;86.29
1371;BME280;14306;49.942;11.570;2022-12-07T10:28:01;97340.22;;;5.96;86.26
1371;BME280;14306;49.942;11.570;2022-12-07T10:30:31;97339.94;;;5.98;86.38
1371;BME280;14306;49.942;11.570;2022-12-07T10:33:00;97349.47;;;6.24;86.29
1371;BME280;14306;49.942;11.570;2022-12-07T10:35:30;97350.69;;;5.98;86.01
1371;BME280;14306;49.942;11.570;2022-12-07T10:37:59;97336.78;;;5.86;86.84
1371;BME280;14306;49.942;11.570;2022-12-07T10:40:31;97348.66;;;6.23;85.25
1371;BME280;14306;49.942;11.570;2022-12-07T10:43:06;97344.75;;;6.44;85.19
1371;BME280;14306;49.942;11.570;2022-12-07T10:46:01;97344.78;;;6.39;85.25
1371;BME280;14306;49.942;11.570;2022-12-07T10:48:45;97343.25;;;6.28;86.38
1371;BME280;14306;49.942;11.570;2022-12-07T10:51:24;97337.38;;;6.21;86.47
1371;BME280;14306;49.942;11.570;2022-12-07T10:54:03;97344.28;;;6.37;85.31
1371;BME280;14306;49.942;11.570;2022-12-07T10:56:47;97334.84;;;6.40;86.70
1371;BME280;14306;49.942;11.570;2022-12-07T10:59:55;97333.28;;;6.34;85.78
1371;BME280;14306;49.942;11.570;2022-12-07T11:05:27;97339.38;;;6.49;85.67
1371;BME280;14306;49.942;11.570;2022-12-07T11:08:03;97335.72;;;6.25;86.77
1371;BME280;14306;49.942;11.570;2022-12-07T11:10:43;97330.63;;;6.29;88.20
1371;BME280;14306;49.942;11.570;2022-12-07T11:13:22;97326.84;;;6.30;87.07
1371;BME280;14306;49.942;11.570;2022-12-07T11:16:04;97327.38;;;6.27;89.29
1371;BME280;14306;49.942;11.570;2022-12-07T11:18:40;97315.34;;;6.19;88.17
1371;BME280;14306;49.942;11.570;2022-12-07T11:21:18;97321.47;;;6.68;85.92
1371;BME280;14306;49.942;11.570;2022-12-07T11:23:54;97317.31;;;7.09;86.66
1371;BME280;14306;49.942;11.570;2022-12-07T11:26:34;97315.56;;;6.66;86.39
1371;BME280;14306;49.942;11.570;2022-12-07T11:29:54;97310.44;;;6.65;86.47
1371;BME280;14306;49.942;11.570;2022-12-07T11:32:39;97304.34;;;7.16;86.30
1371;BME280;14306;49.942;11.570;2022-12-07T11:35:19;97308.72;;;7.36;85.56
1371;BME280;14306;49.942;11.570;2022-12-07T11:37:57;97295.41;;;7.21;83.61
1371;BME280;14306;49.942;11.570;2022-12-07T11:40:29;97299.38;;;7.75;83.01
1371;BME280;14306;49.942;11.570;2022-12-07T11:43:05;97305.97;;;8.06;82.50
1371;BME280;14306;49.942;11.570;2022-12-07T11:45:37;97300.97;;;8.18;80.57
1371;BME280;14306;49.942;11.570;2022-12-07T11:48:14;97298.25;;;8.18;82.15
1371;BME280;14306;49.942;11.570;2022-12-07T11:50:47;97296.63;;;8.23;80.26
1371;BME280;14306;49.942;11.570;2022-12-07T11:53:20;97294.38;;;8.06;81.44
1371;BME280;14306;49.942;11.570;2022-12-07T11:55:56;97288.50;;;8.04;81.23
1371;BME280;14306;49.942;11.570;2022-12-07T11:58:42;97293.88;;;8.04;79.82
1371;BME280;14306;49.942;11.570;2022-12-07T12:01:18;97288.31;;;7.95;80.56
1371;BME280;14306;49.942;11.570;2022-12-07T12:03:54;97274.47;;;8.20;79.65
1371;BME280;14306;49.942;11.570;2022-12-07T12:06:24;97265.78;;;8.29;79.47
1371;BME280;14306;49.942;11.570;2022-12-07T12:08:59;97275.28;;;8.02;80.71
1371;BME280;14306;49.942;11.570;2022-12-07T12:12:05;97273.53;;;7.93;80.83
1371;BME280;14306;49.942;11.570;2022-12-07T12:15:08;97266.97;;;7.99;77.92
1371;BME280;14306;49.942;11.570;2022-12-07T12:18:00;97278.28;;;8.19;77.71
1371;BME280;14306;49.942;11.570;2022-12-07T12:20:39;97259.94;;;8.22;75.98
1371;BME280;14306;49.942;11.570;2022-12-07T12:23:11;97258.94;;;7.75;77.37
1371;BME280;14306;49.942;11.570;2022-12-07T12:25:45;97260.84;;;7.51;80.63
1371;BME280;14306;49.942;11.570;2022-12-07T12:28:22;97259.16;;;7.79;79.08
1371;BME280;14306;49.942;11.570;2022-12-07T12:31:11;97258.47;;;7.92;79.86
1371;BME280;14306;49.942;11.570;2022-12-07T12:33:43;97250.72;;;8.60;76.11
1371;BME280;14306;49.942;11.570;2022-12-07T12:36:24;97251.09;;;8.16;79.22
1371;BME280;14306;49.942;11.570;2022-12-07T12:39:09;97258.59;;;8.56;75.99
1371;BME280;14306;49.942;11.570;2022-12-07T12:42:02;97254.69;;;8.49;75.71
1371;BME280;14306;49.942;11.570;2022-12-07T12:45:04;97259.69;;;7.99;77.27
1371;BME280;14306;49.942;11.570;2022-12-07T12:47:57;97257.50;;;8.20;78.55
1371;BME280;14306;49.942;11.570;2022-12-07T12:50:28;97261.25;;;8.24;77.82
1371;BME280;14306;49.942;11.570;2022-12-07T12:56:04;97262.81;;;7.88;78.87
1371;BME280;14306;49.942;11.570;2022-12-07T12:58:42;97253.84;;;8.11;76.31
1371;BME280;14306;49.942;11.570;2022-12-07T13:01:46;97248.63;;;7.82;77.48
1371;BME280;14306;49.942;11.570;2022-12-07T13:07:51;97246.66;;;8.06;78.32
1371;BME280;14306;49.942;11.570;2022-12-07T13:10:39;97244.22;;;8.29;75.24
1371;BME280;14306;49.942;11.570;2022-12-07T13:13:32;97249.72;;;8.00;75.98
1371;BME280;14306;49.942;11.570;2022-12-07T13:16:37;97236.84;;;8.34;76.65
1371;BME280;14306;49.942;11.570;2022-12-07T13:25:21;97238.31;;;7.66;77.30
1371;BME280;14306;49.942;11.570;2022-12-07T13:27:57;97230.91;;;7.34;78.63
1371;BME280;14306;49.942;11.570;2022-12-07T13:30:26;97221.81;;;7.49;77.49
1371;BME280;14306;49.942;11.570;2022-12-07T13:32:58;97227.41;;;7.10;80.23
1371;BME280;14306;49.942;11.570;2022-12-07T13:35:31;97222.59;;;7.07;79.78
1371;BME280;14306;49.942;11.570;2022-12-07T13:38:13;97212.38;;;7.04;80.15
1371;BME280;14306;49.942;11.570;2022-12-07T13:40:59;97210.66;;;6.90;80.43
1371;BME280;14306;49.942;11.570;2022-12-07T13:43:28;97209.94;;;7.08;79.25
1371;BME280;14306;49.942;11.570;2022-12-07T13:45:58;97210.34;;;6.68;81.08
1371;BME280;14306;49.942;11.570;2022-12-07T13:48:32;97209.34;;;6.87;80.65
1371;BME280;14306;49.942;11.570;2022-12-07T13:51:03;97215.09;;;6.47;80.67
1371;BME280;14306;49.942;11.570;2022-12-07T13:53:31;97214.47;;;6.60;81.20
1371;BME280;14306;49.942;11.570;2022-12-07T13:56:00;97222.41;;;6.99;79.98
1371;BME280;14306;49.942;11.570;2022-12-07T13:58:31;97217.38;;;6.92;80.00
1371;BME280;14306;49.942;11.570;2022-12-07T14:01:01;97215.09;;;6.76;81.43
1371;BME280;14306;49.942;11.570;2022-12-07T14:03:33;97211.06;;;7.02;79.49